Time;durP1;ratioP1;P1;durP2;ratioP2;P2;SDS_P1;SDS_P2;PMS_P1;PMS_P2;Temp;Humidity;BMP_temperature;BMP_pressure;BME280_temperature;BME280_humidity;BME280_pressure;Samples;Min_cycle;Max_cycle;Signal;HPM_P1;HPM_P2
2023/02/28 00:01:19;;;;;;;5.75;3.05;;;;;;;4.27;83.54;103159.09;4961235;28;20074;-81
2023/02/28 00:03:45;;;;;;;5.00;3.30;;;;;;;4.26;83.92;103164.47;4960804;28;20504;-80
2023/02/28 00:06:11;;;;;;;5.18;3.60;;;;;;;4.29;83.77;103162.53;4976372;28;20053;-82
2023/02/28 00:08:37;;;;;;;7.45;3.80;;;;;;;4.31;83.45;103157.13;4992798;28;20034;-82
2023/02/28 00:11:05;;;;;;;4.72;3.20;;;;;;;4.36;82.44;103163.94;4992660;28;20495;-82
2023/02/28 00:13:31;;;;;;;6.28;3.50;;;;;;;4.32;82.10;103157.06;4976087;28;20037;-82
2023/02/28 00:16:08;;;;;;;6.00;3.40;;;;;;;4.36;82.57;103163.09;4945509;28;20042;-83
2023/02/28 00:18:34;;;;;;;4.68;3.25;;;;;;;4.35;82.42;103162.22;4996696;28;20029;-84
2023/02/28 00:21:00;;;;;;;4.38;3.10;;;;;;;4.28;83.05;103170.59;4980134;28;20042;-81
2023/02/28 00:23:26;;;;;;;3.53;2.13;;;;;;;4.25;83.25;103174.28;4980578;28;20097;-84
2023/02/28 00:25:52;;;;;;;4.60;3.00;;;;;;;4.25;83.95;103174.28;4964497;28;20031;-82
2023/02/28 00:28:18;;;;;;;3.35;2.55;;;;;;;4.22;83.59;103171.78;4964095;28;20045;-83
2023/02/28 00:30:43;;;;;;;4.45;2.47;;;;;;;4.28;82.67;103173.25;4964132;28;20034;-82
2023/02/28 00:33:09;;;;;;;3.78;2.80;;;;;;;4.24;82.49;103169.91;4997761;28;20042;-82
2023/02/28 00:35:35;;;;;;;4.63;2.95;;;;;;;4.21;82.76;103175.38;4963851;28;20050;-83
2023/02/28 00:38:01;;;;;;;5.88;2.80;;;;;;;4.08;83.24;103160.94;4997431;28;20038;-82
2023/02/28 00:40:29;;;;;;;3.90;2.70;;;;;;;4.16;83.75;103185.38;4980464;28;20058;-83
2023/02/28 00:42:55;;;;;;;3.88;2.28;;;;;;;4.10;84.03;103175.00;4963285;28;20062;-82
2023/02/28 00:45:21;;;;;;;3.08;2.15;;;;;;;4.02;84.54;103163.88;4964353;28;20435;-82
2023/02/28 00:47:49;;;;;;;3.42;2.45;;;;;;;4.05;84.79;103177.94;4980142;28;20384;-82
2023/02/28 00:50:17;;;;;;;3.80;2.60;;;;;;;3.97;84.68;103178.28;4979487;28;20453;-82
2023/02/28 00:52:42;;;;;;;4.05;2.20;;;;;;;4.03;84.48;103185.13;4980107;28;20034;-82
2023/02/28 00:55:11;;;;;;;5.40;2.70;;;;;;;4.07;84.23;103184.00;4963916;28;20033;-81
2023/02/28 00:57:37;;;;;;;3.83;2.22;;;;;;;4.07;84.07;103184.00;4979492;28;20042;-81
2023/02/28 01:00:03;;;;;;;4.07;2.45;;;;;;;4.03;83.92;103174.47;4979659;28;20452;-82
2023/02/28 01:02:30;;;;;;;3.83;2.30;;;;;;;4.12;83.62;103186.47;4979938;28;20026;-81
2023/02/28 01:04:56;;;;;;;2.38;1.42;;;;;;;4.15;83.00;103175.66;4996473;28;20096;-82
2023/02/28 01:07:23;;;;;;;2.95;2.20;;;;;;;4.23;82.54;103185.94;4963728;28;20046;-82
2023/02/28 01:09:48;;;;;;;4.78;2.60;;;;;;;4.16;82.66;103182.72;4979822;28;20043;-81
2023/02/28 01:12:14;;;;;;;3.63;2.55;;;;;;;4.15;83.29;103194.28;4978851;28;20148;-82
2023/02/28 01:14:40;;;;;;;4.68;2.58;;;;;;;4.15;83.93;103191.63;4979474;28;20037;-83
2023/02/28 01:17:06;;;;;;;5.13;2.95;;;;;;;4.07;83.85;103181.34;4963689;28;20381;-82
2023/02/28 01:19:32;;;;;;;4.60;2.70;;;;;;;4.08;84.69;103182.25;4962471;28;20038;-83
2023/02/28 01:22:03;;;;;;;1.98;1.40;;;;;;;4.11;84.43;103174.09;4963870;28;20088;-82
2023/02/28 01:24:29;;;;;;;4.30;2.45;;;;;;;4.10;85.13;103183.00;4996652;28;20042;-82
2023/02/28 01:26:55;;;;;;;7.72;2.90;;;;;;;4.08;85.26;103188.41;4962572;28;20419;-82
2023/02/28 01:29:21;;;;;;;3.75;2.38;;;;;;;3.99;85.94;103183.53;4963093;28;20030;-81
2023/02/28 01:31:46;;;;;;;3.65;2.30;;;;;;;3.93;87.00;103190.00;4947133;28;20046;-82
2023/02/28 01:34:12;;;;;;;4.18;2.50;;;;;;;3.85;87.56;103178.88;4962623;28;20117;-83
2023/02/28 01:36:37;;;;;;;4.60;2.40;;;;;;;3.84;88.66;103195.78;4963355;28;20077;-82
2023/02/28 01:39:03;;;;;;;4.15;2.22;;;;;;;3.74;89.47;103189.16;4963220;28;20073;-83
2023/02/28 01:41:33;;;;;;;3.58;2.40;;;;;;;3.72;89.78;103193.69;4978388;28;20077;-82
2023/02/28 01:44:06;;;;;;;4.22;2.47;;;;;;;3.72;90.04;103191.03;4978833;28;20484;-82
2023/02/28 01:46:34;;;;;;;3.65;2.05;;;;;;;3.53;90.76;103165.28;4994584;28;20026;-82
2023/02/28 01:49:06;;;;;;;3.47;2.30;;;;;;;3.71;90.57;103189.31;4978974;28;20034;-82
2023/02/28 01:51:50;;;;;;;3.55;2.25;;;;;;;3.70;89.65;103176.91;4995962;28;20031;-81
2023/02/28 01:54:31;;;;;;;3.05;2.42;;;;;;;3.74;88.96;103175.84;4995185;28;20054;-82
2023/02/28 01:57:04;;;;;;;4.40;2.40;;;;;;;3.80;88.84;103186.19;4963102;28;20129;-81
2023/02/28 01:59:38;;;;;;;3.15;2.00;;;;;;;3.80;88.54;103180.03;4978483;28;20038;-82
2023/02/28 02:02:04;;;;;;;2.90;2.22;;;;;;;3.87;88.42;103192.09;4995023;28;20141;-80
2023/02/28 02:04:38;;;;;;;5.10;2.42;;;;;;;3.85;88.30;103192.16;4962390;28;20113;-82
2023/02/28 02:07:04;;;;;;;3.30;2.25;;;;;;;3.66;87.67;103149.59;4962963;28;20058;-80
2023/02/28 02:09:30;;;;;;;4.45;2.28;;;;;;;3.89;88.07;103188.44;4978634;28;20038;-81
2023/02/28 02:11:56;;;;;;;2.97;1.77;;;;;;;3.91;87.76;103191.88;4977914;28;20053;-82
2023/02/28 02:14:47;;;;;;;3.50;2.53;;;;;;;3.91;88.07;103194.53;4978463;28;20110;-82
2023/02/28 02:17:36;;;;;;;3.60;2.60;;;;;;;3.90;87.61;103189.31;4978025;28;20034;-82
2023/02/28 02:20:26;;;;;;;2.97;2.13;;;;;;;3.90;87.61;103186.63;4962699;28;20030;-82
2023/02/28 02:23:08;;;;;;;1.60;1.30;;;;;;;3.86;88.05;103185.91;4994940;28;20034;-80
2023/02/28 02:25:44;;;;;;;2.35;1.70;;;;;;;3.79;88.60;103163.19;4994455;28;20026;-82
2023/02/28 02:28:55;;;;;;;3.55;2.60;;;;;;;3.88;88.34;103184.03;4962493;28;20433;-82
2023/02/28 02:31:53;;;;;;;5.43;2.58;;;;;;;3.86;89.05;103191.22;4974132;28;20034;-82
2023/02/28 02:34:25;;;;;;;4.00;2.72;;;;;;;3.87;88.64;103187.66;4960755;28;20042;-82
2023/02/28 02:37:05;;;;;;;4.22;2.88;;;;;;;3.91;88.91;103191.88;4993628;28;20149;-82
2023/02/28 02:39:39;;;;;;;4.05;2.95;;;;;;;3.84;88.55;103166.50;4993517;28;20035;-83
2023/02/28 02:42:14;;;;;;;3.63;2.40;;;;;;;3.94;87.92;103181.09;4994297;28;20065;-81
2023/02/28 02:44:44;;;;;;;4.40;2.45;;;;;;;3.79;88.02;103152.56;4993932;28;20034;-82
2023/02/28 02:47:14;;;;;;;5.00;2.88;;;;;;;3.90;88.09;103168.00;4993610;28;20065;-81
2023/02/28 02:49:43;;;;;;;5.45;2.92;;;;;;;3.91;88.45;103172.38;4946174;28;20034;-82
2023/02/28 02:52:11;;;;;;;8.93;4.00;;;;;;;3.77;88.97;103150.91;4961727;28;20204;-81
2023/02/28 02:54:40;;;;;;;16.48;7.60;;;;;;;3.93;88.48;103171.38;4961091;28;20121;-82
2023/02/28 02:57:31;;;;;;;24.08;9.77;;;;;;;3.90;88.25;103170.66;4993657;28;20381;-82
2023/02/28 03:00:03;;;;;;;22.38;8.00;;;;;;;3.82;88.09;103154.19;4950371;28;20419;-81
2023/02/28 03:02:33;;;;;;;8.82;3.75;;;;;;;3.87;88.88;103177.00;4961553;28;20480;-82
2023/02/28 03:05:03;;;;;;;7.78;3.97;;;;;;;3.57;88.69;103122.56;4978405;28;20050;-82
2023/02/28 03:07:29;;;;;;;4.30;2.55;;;;;;;3.90;89.16;103176.84;4977069;28;20038;-82
2023/02/28 03:09:57;;;;;;;5.43;3.08;;;;;;;3.91;88.82;103180.38;4994909;28;20034;-82
2023/02/28 03:12:33;;;;;;;14.82;6.03;;;;;;;3.91;88.81;103177.72;4992689;28;20042;-82
2023/02/28 03:15:10;;;;;;;18.60;8.25;;;;;;;3.93;89.51;103175.84;4977691;28;20062;-83
2023/02/28 03:17:51;;;;;;;20.80;9.25;;;;;;;3.93;88.88;103176.69;4992735;28;20037;-82
2023/02/28 03:20:36;;;;;;;28.35;11.88;;;;;;;3.95;89.00;103174.84;4993713;28;20076;-84
2023/02/28 03:23:17;;;;;;;30.08;13.32;;;;;;;3.98;88.59;103181.81;4994694;28;20481;-82
2023/02/28 03:25:43;;;;;;;14.02;6.78;;;;;;;3.99;88.20;103178.19;4990583;28;20049;-81
2023/02/28 03:28:27;;;;;;;7.28;3.92;;;;;;;3.91;88.00;103157.25;4993419;28;20112;-82
2023/02/28 03:31:08;;;;;;;6.95;2.80;;;;;;;3.99;88.33;103172.03;4976578;28;20065;-83
2023/02/28 03:33:54;;;;;;;8.80;4.40;;;;;;;3.93;87.81;103171.38;4993443;28;20120;-84
2023/02/28 03:36:25;;;;;;;8.38;5.22;;;;;;;3.94;87.88;103178.44;4977417;28;20045;-82
2023/02/28 03:39:02;;;;;;;6.63;3.55;;;;;;;3.92;88.67;103174.13;4961265;28;20085;-82
2023/02/28 03:41:36;;;;;;;3.50;2.20;;;;;;;3.88;89.32;103172.53;4992479;28;20026;-82
2023/02/28 03:44:24;;;;;;;5.70;2.35;;;;;;;3.87;88.90;103171.69;4977035;28;20049;-83
2023/02/28 03:47:02;;;;;;;4.15;2.65;;;;;;;3.90;89.52;103173.31;4989859;28;20064;-83
2023/02/28 03:49:33;;;;;;;10.98;4.10;;;;;;;3.79;89.55;103157.88;4946021;28;20092;-84
2023/02/28 03:52:02;;;;;;;5.05;2.92;;;;;;;3.64;89.57;103143.47;4992291;28;20038;-83
2023/02/28 03:54:32;;;;;;;4.63;2.70;;;;;;;3.80;90.36;103175.56;4961305;28;20027;-83
2023/02/28 03:57:10;;;;;;;5.93;3.72;;;;;;;3.81;90.94;103176.41;4977067;28;20030;-83
2023/02/28 03:59:43;;;;;;;4.15;2.60;;;;;;;3.78;90.96;103172.09;4961206;28;20034;-82
2023/02/28 04:02:12;;;;;;;2.35;1.40;;;;;;;3.66;91.41;103157.59;4976517;28;20093;-83
2023/02/28 04:04:38;;;;;;;3.35;1.65;;;;;;;3.51;91.83;103140.53;4960955;28;20038;-83
2023/02/28 04:07:06;;;;;;;3.05;2.08;;;;;;;3.73;92.15;103185.63;4943757;28;20044;-83
2023/02/28 04:09:34;;;;;;;2.95;2.00;;;;;;;3.70;92.75;103184.91;4976781;28;20038;-82
2023/02/28 04:11:59;;;;;;;7.32;2.70;;;;;;;3.68;93.28;103177.00;4960947;28;20046;-83
2023/02/28 04:14:28;;;;;;;4.63;2.75;;;;;;;3.64;94.56;103180.72;4993472;28;20034;-82
2023/02/28 04:16:57;;;;;;;2.70;2.17;;;;;;;3.62;94.46;103190.56;4977141;28;20035;-82
2023/02/28 04:19:23;;;;;;;2.83;2.20;;;;;;;3.48;95.09;103172.59;4960691;28;20125;-83
2023/02/28 04:21:53;;;;;;;3.72;2.30;;;;;;;3.63;94.84;103194.13;4959994;28;20121;-83
2023/02/28 04:24:27;;;;;;;4.28;2.45;;;;;;;3.59;94.78;103185.41;4992936;28;20038;-82
2023/02/28 04:26:54;;;;;;;2.75;2.25;;;;;;;3.61;95.29;103202.16;4992861;28;20065;-81
2023/02/28 04:29:34;;;;;;;3.95;2.22;;;;;;;3.57;95.07;103194.38;4960482;28;20042;-83
2023/02/28 04:32:01;;;;;;;1.75;1.58;;;;;;;3.62;95.78;103203.03;4992588;28;20548;-83
2023/02/28 04:34:27;;;;;;;3.83;2.42;;;;;;;3.64;95.85;103193.19;4992600;28;20038;-81
2023/02/28 04:36:54;;;;;;;3.00;1.65;;;;;;;3.63;95.39;103194.97;4959613;28;20035;-83
2023/02/28 04:39:24;;;;;;;3.30;2.10;;;;;;;3.69;95.63;103201.81;4960448;28;20070;-82
2023/02/28 04:41:50;;;;;;;3.85;2.72;;;;;;;3.65;95.59;103192.22;4960715;28;20096;-84
2023/02/28 04:44:16;;;;;;;3.65;2.38;;;;;;;3.63;95.90;103210.09;4959838;28;20042;-83
2023/02/28 04:46:42;;;;;;;3.88;2.42;;;;;;;3.55;95.78;103185.59;4993686;28;20062;-83
2023/02/28 04:49:17;;;;;;;5.38;2.40;;;;;;;3.64;95.37;103196.69;4975763;28;20488;-84
2023/02/28 04:51:43;;;;;;;4.85;2.45;;;;;;;3.66;95.14;103201.97;4976403;28;20125;-84
2023/02/28 04:54:08;;;;;;;5.00;2.38;;;;;;;3.68;94.63;103205.41;4959950;28;20437;-84
2023/02/28 04:56:34;;;;;;;3.58;2.47;;;;;;;3.69;94.12;103188.50;4960055;28;20358;-84
2023/02/28 04:59:00;;;;;;;4.00;2.55;;;;;;;3.70;94.25;103200.88;4993699;28;20062;-83
2023/02/28 05:01:29;;;;;;;3.63;2.50;;;;;;;3.70;94.35;103203.53;4975796;28;20131;-81
2023/02/28 05:03:56;;;;;;;4.20;2.67;;;;;;;3.67;94.18;103201.00;4978449;28;20503;-83
2023/02/28 05:06:27;;;;;;;5.50;2.80;;;;;;;3.52;94.55;103178.66;4996094;28;20145;-83
2023/02/28 05:08:54;;;;;;;3.97;3.10;;;;;;;3.63;94.87;103204.75;4963588;28;20049;-83
2023/02/28 05:11:24;;;;;;;3.00;2.30;;;;;;;3.63;95.57;103205.63;4979150;28;20066;-82
2023/02/28 05:13:51;;;;;;;5.07;3.17;;;;;;;3.66;95.12;103212.59;4963857;28;20492;-83
2023/02/28 05:16:17;;;;;;;15.85;6.88;;;;;;;3.63;95.07;103215.41;4979697;28;20038;-83
2023/02/28 05:22:02;;;;;;;39.55;16.83;;;;;;;3.59;95.57;103217.31;4986950;28;20038;-82
2023/02/28 05:24:28;;;;;;;28.70;13.65;;;;;;;3.55;96.16;103225.50;4978901;28;20125;-82
2023/02/28 05:26:54;;;;;;;11.85;5.88;;;;;;;3.51;95.96;103223.00;4995137;28;20034;-82
2023/02/28 05:29:21;;;;;;;12.15;5.32;;;;;;;3.38;96.95;103203.19;4947196;28;20397;-83
2023/02/28 05:31:47;;;;;;;9.13;4.20;;;;;;;3.51;97.15;103228.31;4995588;28;20081;-82
2023/02/28 05:34:12;;;;;;;7.68;3.90;;;;;;;3.55;97.26;103236.16;4978672;28;20065;-84
2023/02/28 05:36:38;;;;;;;10.38;5.00;;;;;;;3.51;96.85;103219.47;4963512;28;20038;-82
2023/02/28 05:39:12;;;;;;;5.18;2.58;;;;;;;3.56;96.84;103232.56;4978748;28;20042;-82
2023/02/28 05:41:42;;;;;;;4.95;2.75;;;;;;;3.49;96.66;103224.88;4994983;28;20034;-81
2023/02/28 05:44:08;;;;;;;2.55;1.75;;;;;;;3.56;97.06;103243.22;4962763;28;20037;-81
2023/02/28 05:46:34;;;;;;;3.10;2.15;;;;;;;3.55;97.06;103233.47;4994721;28;20030;-81
2023/02/28 05:49:00;;;;;;;3.97;2.80;;;;;;;3.56;97.24;103235.22;4978596;28;20117;-83
2023/02/28 05:51:27;;;;;;;3.70;2.80;;;;;;;3.52;97.74;103237.19;4994759;28;20045;-83
2023/02/28 05:53:52;;;;;;;3.10;2.28;;;;;;;3.48;97.42;103236.44;4994934;28;20117;-83
2023/02/28 05:56:18;;;;;;;4.82;3.20;;;;;;;3.47;97.63;103236.53;4979152;28;20057;-83
2023/02/28 05:58:44;;;;;;;4.25;2.67;;;;;;;3.49;97.95;103234.63;4978912;28;20461;-83
2023/02/28 06:01:31;;;;;;;4.22;2.38;;;;;;;3.58;97.69;103244.00;4962987;28;20404;-82
2023/02/28 06:03:56;;;;;;;3.92;2.75;;;;;;;3.55;97.17;103242.34;4994924;28;20041;-83
2023/02/28 06:06:25;;;;;;;4.32;2.88;;;;;;;3.61;96.88;103251.84;4978642;28;20109;-83
2023/02/28 06:08:57;;;;;;;2.45;1.95;;;;;;;3.54;96.77;103243.28;4962753;28;20129;-83
2023/02/28 06:11:26;;;;;;;4.10;1.70;;;;;;;3.53;97.51;103253.06;4962466;28;20042;-83
2023/02/28 06:13:59;;;;;;;3.70;2.72;;;;;;;3.57;97.90;103250.25;4995213;28;20034;-83
2023/02/28 06:16:26;;;;;;;6.57;2.83;;;;;;;3.56;97.46;103253.84;4994859;28;20116;-83
2023/02/28 06:18:52;;;;;;;3.38;2.50;;;;;;;3.52;97.78;103251.34;4962661;28;20130;-83
2023/02/28 06:21:18;;;;;;;4.55;2.50;;;;;;;3.57;98.04;103258.22;4994621;28;20037;-81
2023/02/28 06:23:44;;;;;;;3.72;2.67;;;;;;;3.61;97.86;103266.00;4962262;28;20113;-82
2023/02/28 06:26:11;;;;;;;4.28;2.83;;;;;;;3.50;97.99;103250.53;4978083;28;20038;-83
2023/02/28 06:28:36;;;;;;;3.97;2.80;;;;;;;3.58;98.33;103265.28;4962486;28;20049;-83
2023/02/28 06:31:10;;;;;;;4.75;2.90;;;;;;;3.52;98.98;103269.97;4977788;28;20030;-83
2023/02/28 06:33:37;;;;;;;4.50;3.58;;;;;;;3.49;99.14;103270.09;4961770;28;20112;-81
2023/02/28 06:36:03;;;;;;;1.90;1.70;;;;;;;3.52;99.49;103272.63;4962480;28;20104;-81
2023/02/28 06:38:29;;;;;;;2.38;2.10;;;;;;;3.59;100.00;103267.00;4977711;28;20106;-83
2023/02/28 06:40:56;;;;;;;3.55;2.63;;;;;;;3.61;100.00;103262.50;4962114;28;20041;-83
2023/02/28 06:43:30;;;;;;;3.83;2.30;;;;;;;3.59;99.89;103267.88;4977820;28;20127;-83
2023/02/28 06:45:58;;;;;;;2.83;2.15;;;;;;;3.60;100.00;103271.38;4946251;28;20050;-81
2023/02/28 06:48:24;;;;;;;2.72;1.80;;;;;;;3.55;100.00;103270.72;4977830;28;20034;-83
2023/02/28 06:50:50;;;;;;;6.40;2.42;;;;;;;3.57;100.00;103279.50;4961561;28;20130;-83
2023/02/28 06:53:15;;;;;;;2.15;1.73;;;;;;;3.58;100.00;103282.13;4961801;28;20129;-83
2023/02/28 06:55:41;;;;;;;4.03;2.13;;;;;;;3.57;100.00;103276.84;4961893;28;20042;-83
2023/02/28 06:58:20;;;;;;;4.05;2.53;;;;;;;3.65;99.83;103272.03;4993554;28;20469;-82
2023/02/28 07:00:46;;;;;;;2.90;2.25;;;;;;;3.60;99.00;103269.63;4979359;28;20034;-83
2023/02/28 07:03:12;;;;;;;2.80;2.03;;;;;;;3.47;99.22;103253.34;4993232;28;20081;-81
2023/02/28 07:05:39;;;;;;;4.43;2.55;;;;;;;3.59;99.02;103270.53;4961317;28;20030;-83
2023/02/28 07:08:05;;;;;;;3.50;2.35;;;;;;;3.49;98.67;103270.09;4960877;28;20026;-82
2023/02/28 07:10:33;;;;;;;2.72;2.33;;;;;;;3.68;98.03;103278.13;4977525;28;20101;-83
2023/02/28 07:13:00;;;;;;;3.25;2.63;;;;;;;3.79;95.44;103274.97;4960862;28;20046;-83
2023/02/28 07:15:25;;;;;;;3.55;2.33;;;;;;;3.85;94.38;103273.81;4992763;28;20461;-82
2023/02/28 07:17:51;;;;;;;3.83;2.00;;;;;;;3.79;95.20;103269.66;4976945;28;20038;-83
2023/02/28 07:20:17;;;;;;;1.90;1.73;;;;;;;3.71;94.63;103248.69;4993154;28;20030;-83
2023/02/28 07:22:42;;;;;;;2.33;1.67;;;;;;;3.79;94.44;103280.28;4961146;28;20038;-84
2023/02/28 07:25:09;;;;;;;1.67;1.23;;;;;;;3.86;93.61;103284.38;4993004;28;20037;-82
2023/02/28 07:27:34;;;;;;;2.85;2.25;;;;;;;3.85;92.80;103280.00;4994345;28;20030;-83
2023/02/28 07:30:03;;;;;;;2.35;1.85;;;;;;;3.88;92.44;103282.50;4961195;28;20080;-81
2023/02/28 07:32:29;;;;;;;2.15;1.60;;;;;;;3.86;92.08;103280.84;4977387;28;20117;-82
2023/02/28 07:34:55;;;;;;;3.08;2.10;;;;;;;3.91;91.91;103295.69;4977276;28;20468;-81
2023/02/28 07:37:21;;;;;;;3.22;2.47;;;;;;;3.86;92.43;103294.16;4977195;28;20065;-82
2023/02/28 07:39:47;;;;;;;2.70;1.88;;;;;;;3.80;92.83;103286.47;4977077;28;20034;-82
2023/02/28 07:42:13;;;;;;;2.63;1.90;;;;;;;3.74;93.18;103280.50;4976968;28;20030;-83
2023/02/28 07:44:40;;;;;;;3.03;1.88;;;;;;;3.81;93.14;103290.84;4961287;28;20049;-83
2023/02/28 07:47:09;;;;;;;2.35;1.98;;;;;;;3.82;93.39;103312.09;4992924;28;20033;-83
2023/02/28 07:49:39;;;;;;;4.82;2.75;;;;;;;3.71;93.78;103301.06;4976884;28;20057;-82
2023/02/28 07:52:06;;;;;;;2.92;2.10;;;;;;;3.80;94.55;103310.41;4976415;28;20385;-81
2023/02/28 07:54:32;;;;;;;3.78;2.28;;;;;;;3.81;95.22;103304.16;4992807;28;20030;-82
2023/02/28 07:56:58;;;;;;;1.83;1.52;;;;;;;3.72;94.72;103284.16;4992968;28;20053;-81
2023/02/28 07:59:23;;;;;;;3.15;2.33;;;;;;;3.88;94.40;103311.78;4976511;28;20034;-82
2023/02/28 08:01:50;;;;;;;4.97;2.28;;;;;;;3.95;94.67;103312.41;4992621;28;20057;-82
2023/02/28 08:04:17;;;;;;;3.97;2.10;;;;;;;3.99;94.63;103323.75;4960186;28;20385;-82
2023/02/28 08:06:42;;;;;;;2.97;2.25;;;;;;;4.03;94.16;103320.03;4960444;28;20026;-80
2023/02/28 08:09:08;;;;;;;3.95;1.90;;;;;;;4.02;93.54;103310.31;4976377;28;20033;-82
2023/02/28 08:11:34;;;;;;;2.90;2.03;;;;;;;4.23;92.56;103325.28;4976445;28;20065;-81
2023/02/28 08:14:00;;;;;;;1.95;1.50;;;;;;;4.34;91.94;103330.09;4992183;28;20049;-82
2023/02/28 08:16:26;;;;;;;3.67;2.00;;;;;;;4.34;91.68;103317.69;4960550;28;20038;-82
2023/02/28 08:18:52;;;;;;;4.82;2.67;;;;;;;4.41;91.68;103324.41;4976904;28;20034;-82
2023/02/28 08:21:19;;;;;;;5.38;2.95;;;;;;;4.27;91.53;103312.69;4992708;28;20096;-82
2023/02/28 08:23:50;;;;;;;4.78;2.92;;;;;;;4.53;91.84;103330.97;4992337;28;20026;-81
2023/02/28 08:26:17;;;;;;;4.38;2.58;;;;;;;4.54;91.18;103315.84;4992559;28;20038;-80
2023/02/28 08:28:44;;;;;;;7.95;2.42;;;;;;;4.72;89.83;103325.63;4992620;28;20030;-83
2023/02/28 08:31:11;;;;;;;3.10;2.17;;;;;;;4.62;89.15;103301.22;4992536;28;20031;-81
2023/02/28 08:33:38;;;;;;;3.03;2.45;;;;;;;4.94;88.45;103332.56;4960547;28;20032;-81
2023/02/28 08:36:05;;;;;;;7.72;2.45;;;;;;;5.06;87.42;103339.97;4992538;28;20031;-81
2023/02/28 08:38:31;;;;;;;4.70;2.28;;;;;;;5.13;85.76;103319.16;4977979;28;20045;-83
2023/02/28 08:40:58;;;;;;;4.65;2.13;;;;;;;5.32;85.47;103335.09;4995869;28;20034;-82
2023/02/28 08:43:25;;;;;;;4.03;2.85;;;;;;;5.34;85.38;103327.88;4980107;28;20039;-80
2023/02/28 08:45:56;;;;;;;4.28;2.20;;;;;;;5.54;84.54;103334.88;4979830;28;20041;-81
2023/02/28 08:48:23;;;;;;;4.97;3.33;;;;;;;5.62;84.04;103338.88;4964142;28;20065;-80
2023/02/28 08:50:57;;;;;;;3.20;2.38;;;;;;;5.72;83.92;103348.13;4997244;28;20384;-83
2023/02/28 08:53:23;;;;;;;3.55;2.55;;;;;;;5.79;82.78;103347.78;4979583;28;20457;-83
2023/02/28 08:56:00;;;;;;;2.22;1.95;;;;;;;5.86;82.75;103339.38;4979954;28;20042;-81
2023/02/28 08:58:26;;;;;;;2.83;2.30;;;;;;;5.94;82.61;103353.22;4995732;28;20470;-81
2023/02/28 09:00:52;;;;;;;5.13;2.35;;;;;;;5.96;82.76;103346.94;4963847;28;20042;-82
2023/02/28 09:03:18;;;;;;;5.70;2.50;;;;;;;6.01;82.93;103351.09;4963888;28;20034;-82
2023/02/28 09:05:55;;;;;;;4.18;2.55;;;;;;;6.05;82.52;103352.63;4947927;28;20030;-81
2023/02/28 09:08:21;;;;;;;4.03;2.95;;;;;;;6.09;81.66;103342.66;4995420;28;20037;-82
2023/02/28 09:10:47;;;;;;;2.92;2.40;;;;;;;6.14;82.44;103357.50;4963866;28;20038;-83
2023/02/28 09:13:12;;;;;;;6.15;2.55;;;;;;;6.14;82.43;103356.63;4963538;28;20496;-83
2023/02/28 09:15:39;;;;;;;3.50;2.25;;;;;;;6.13;82.40;103347.72;4979546;28;20042;-85
2023/02/28 09:18:04;;;;;;;3.95;2.65;;;;;;;6.22;82.08;103359.75;4963358;28;20380;-79
2023/02/28 09:20:30;;;;;;;3.03;1.90;;;;;;;6.19;81.95;103335.00;4996697;28;20089;-80
2023/02/28 09:22:55;;;;;;;3.70;2.20;;;;;;;6.37;81.92;103342.84;4995476;28;20026;-79
2023/02/28 09:25:21;;;;;;;2.47;1.80;;;;;;;6.58;80.79;103346.13;4979604;28;20472;-79
2023/02/28 09:27:47;;;;;;;4.00;2.38;;;;;;;6.74;80.23;103338.09;4995365;28;20030;-79
2023/02/28 09:30:13;;;;;;;4.90;2.80;;;;;;;7.07;80.00;103357.69;4995647;28;20058;-81
2023/02/28 09:32:39;;;;;;;4.75;2.58;;;;;;;7.26;78.80;103345.78;4963291;28;20034;-79
2023/02/28 09:35:05;;;;;;;3.65;2.58;;;;;;;7.48;77.72;103350.72;4979048;28;20085;-79
2023/02/28 09:37:31;;;;;;;3.88;2.15;;;;;;;7.67;76.17;103354.97;4979265;28;20030;-79
2023/02/28 09:39:57;;;;;;;4.40;2.72;;;;;;;7.82;75.67;103354.03;4979285;28;20057;-79
2023/02/28 09:42:33;;;;;;;3.00;2.08;;;;;;;7.92;75.06;103351.66;4995303;28;20125;-79
2023/02/28 09:45:00;;;;;;;3.90;2.38;;;;;;;8.07;75.20;103363.22;4995633;28;20034;-79
2023/02/28 09:47:46;;;;;;;3.42;1.98;;;;;;;8.12;75.27;103356.66;4979107;28;20026;-80
2023/02/28 09:50:18;;;;;;;4.10;2.60;;;;;;;8.02;77.17;103365.31;4993992;28;20050;-80
2023/02/28 09:52:45;;;;;;;4.35;2.33;;;;;;;8.05;77.71;103365.16;4996306;28;20472;-80
2023/02/28 09:55:25;;;;;;;2.88;2.25;;;;;;;7.98;77.17;103353.94;4978691;28;20039;-79
2023/02/28 09:57:52;;;;;;;3.15;2.20;;;;;;;8.02;78.31;103357.28;4995100;28;20026;-80
2023/02/28 10:00:19;;;;;;;3.83;1.92;;;;;;;8.17;77.32;103361.69;4994902;28;20130;-79
2023/02/28 10:03:14;;;;;;;3.70;2.10;;;;;;;8.37;76.80;103358.63;4994749;28;20038;-77
2023/02/28 10:06:03;;;;;;;3.08;2.20;;;;;;;8.71;76.73;103359.19;4994515;28;20465;-76
2023/02/28 10:08:41;;;;;;;3.13;2.15;;;;;;;9.09;74.28;103353.09;4979245;28;20030;-76
2023/02/28 10:11:08;;;;;;;3.10;1.92;;;;;;;9.36;72.77;103354.88;4995987;28;20033;-80
2023/02/28 10:13:42;;;;;;;3.10;2.47;;;;;;;9.64;71.28;103346.66;4995945;28;20038;-80
2023/02/28 10:16:13;;;;;;;3.53;2.33;;;;;;;10.22;69.05;103346.22;4995113;28;20046;-80
2023/02/28 10:18:45;;;;;;;6.82;3.05;;;;;;;10.67;68.35;103341.16;4994241;28;20053;-82
2023/02/28 10:21:27;;;;;;;3.50;2.63;;;;;;;11.07;66.92;103351.66;4977188;28;20038;-80
2023/02/28 10:23:59;;;;;;;2.72;1.92;;;;;;;11.40;62.61;103340.97;4992363;28;20030;-80
2023/02/28 10:26:26;;;;;;;2.95;2.13;;;;;;;11.14;61.88;103328.66;4976172;28;20546;-80
2023/02/28 10:28:53;;;;;;;3.00;1.70;;;;;;;10.97;61.93;103335.31;4992412;28;20117;-80
2023/02/28 10:31:19;;;;;;;3.15;2.00;;;;;;;10.88;63.84;103344.97;4994310;28;20022;-80
2023/02/28 10:33:45;;;;;;;2.97;1.70;;;;;;;10.70;64.42;103343.63;4962197;28;20034;-81
2023/02/28 10:36:16;;;;;;;2.85;1.80;;;;;;;10.26;65.64;103345.84;4978253;28;20042;-81
2023/02/28 10:38:42;;;;;;;3.60;2.25;;;;;;;10.01;66.58;103348.59;4994295;28;20084;-82
2023/02/28 10:41:10;;;;;;;4.38;2.20;;;;;;;9.98;68.52;103346.97;4978186;28;20042;-80
2023/02/28 10:43:38;;;;;;;1.85;1.50;;;;;;;10.05;66.92;103340.19;4977744;28;20030;-80
2023/02/28 10:46:09;;;;;;;2.67;1.73;;;;;;;10.17;66.39;103349.22;4994178;28;20034;-80
2023/02/28 10:48:38;;;;;;;3.88;2.20;;;;;;;10.23;64.59;103342.53;4995313;28;20030;-80
2023/02/28 10:51:08;;;;;;;3.00;2.35;;;;;;;10.32;64.32;103345.47;4994968;28;20045;-80
2023/02/28 10:53:37;;;;;;;3.00;1.80;;;;;;;10.59;63.12;103339.03;4977697;28;20031;-79
2023/02/28 10:56:08;;;;;;;3.60;2.03;;;;;;;10.90;61.55;103344.81;4961945;28;20054;-79
2023/02/28 10:58:49;;;;;;;3.83;2.28;;;;;;;10.93;62.09;103333.84;4977841;28;20137;-79
2023/02/28 11:01:18;;;;;;;2.58;1.63;;;;;;;11.17;60.32;103332.00;4992998;28;20026;-79
2023/02/28 11:03:44;;;;;;;3.72;2.47;;;;;;;11.11;60.16;103353.97;4993625;28;20034;-79
2023/02/28 11:06:19;;;;;;;2.50;1.80;;;;;;;11.18;60.90;103355.25;4993684;28;20088;-79
2023/02/28 11:08:48;;;;;;;5.47;1.90;;;;;;;11.06;61.13;103348.13;4993831;28;20433;-79
2023/02/28 11:11:13;;;;;;;5.53;2.83;;;;;;;11.08;62.10;103356.06;4994016;28;20045;-80
2023/02/28 11:13:39;;;;;;;3.42;2.28;;;;;;;11.01;62.46;103347.59;4961643;28;20034;-79
2023/02/28 11:16:07;;;;;;;4.30;2.30;;;;;;;10.91;62.24;103351.94;4961595;28;20041;-79
2023/02/28 11:18:53;;;;;;;5.20;2.28;;;;;;;10.68;63.65;103353.66;4993735;28;20054;-80
2023/02/28 11:21:26;;;;;;;5.40;2.83;;;;;;;10.32;65.24;103352.69;4961302;28;20384;-79
2023/02/28 11:23:58;;;;;;;4.60;3.05;;;;;;;10.01;66.66;103360.19;4977640;28;20076;-79
2023/02/28 11:26:45;;;;;;;4.83;2.90;;;;;;;9.67;69.29;103356.31;4961316;28;20388;-79
2023/02/28 11:29:33;;;;;;;4.88;2.65;;;;;;;9.54;70.18;103340.19;4977253;28;20066;-80
2023/02/28 11:32:10;;;;;;;5.25;2.90;;;;;;;9.73;71.35;103344.28;4992929;28;20564;-80
2023/02/28 11:34:37;;;;;;;6.88;3.35;;;;;;;9.99;69.30;103343.31;4977264;28;20037;-79
2023/02/28 11:37:05;;;;;;;3.80;2.80;;;;;;;10.15;67.80;103344.91;4977364;28;20044;-80
2023/02/28 11:39:32;;;;;;;6.60;3.20;;;;;;;10.36;67.79;103347.94;4961313;28;20548;-79
2023/02/28 11:42:40;;;;;;;6.00;2.78;;;;;;;11.09;65.91;103347.03;4960907;28;20030;-79
2023/02/28 11:45:20;;;;;;;4.65;2.67;;;;;;;11.45;65.16;103344.19;4986165;28;20532;-79
2023/02/28 11:47:45;;;;;;;3.63;2.85;;;;;;;11.16;61.13;103359.03;4993270;28;20026;-79